Latest Weather Observations for Inner Beacon

IDQ60901

Issued at 9:41 am EST Tuesday 17 October 2017 (issued every 10 minutes, with the page automatically refreshed every 10 minutes)

About weather observations | Map of Brisbane area stations | Latest observations for Brisbane area | Other Formats
Station Details ID: 040926 Name: INNER RECIPROCAL MARKER Lat: -27.26 Lon: 153.24 Height: 20.0 m
Data from the previous 72 hours. | See also: Recent months for locations in Queensland
Date/Time
EST
Temp
°C
App
Temp
°C
Dew
Point
°C
Rel
Hum
%
Delta-T
°C
Wind Press
QNH
hPa
Press
MSL
hPa
Rain since
9am
mm
Dir  Spd
km/h
Gust
km/h
Spd
kts
Gust
kts
17/09:30am - - - - - ESE 50 63 27 34 - - -
17/09:00am - - - - - ESE 46 56 25 30 - - -
17/08:30am - - - - - ESE 50 59 27 32 - - -
17/08:00am - - - - - ESE 50 59 27 32 - - -
17/07:30am - - - - - ESE 50 59 27 32 - - -
17/07:00am - - - - - ESE 46 56 25 30 - - -
17/06:30am - - - - - ESE 50 63 27 34 - - -
17/06:00am - - - - - ESE 52 65 28 35 - - -
17/05:30am - - - - - ESE 46 59 25 32 - - -
17/05:00am - - - - - ESE 44 56 24 30 - - -
17/04:30am - - - - - ESE 44 56 24 30 - - -
17/04:09am - - - - - ESE 44 63 24 34 - - -
17/04:00am - - - - - ESE 48 61 26 33 - - -
17/03:30am - - - - - ESE 41 50 22 27 - - -
17/03:00am - - - - - ESE 39 50 21 27 - - -
17/02:30am - - - - - ESE 43 54 23 29 - - -
17/02:00am - - - - - ESE 43 52 23 28 - - -
17/01:30am - - - - - ESE 41 52 22 28 - - -
17/01:00am - - - - - ESE 41 50 22 27 - - -
17/12:30am - - - - - ESE 41 52 22 28 - - -
17/12:00am - - - - - ESE 44 56 24 30 - - -
 
Date/Time
EST
Temp
°C
App
Temp
°C
Dew
Point
°C
Rel
Hum
%
Delta-T
°C
Wind Press
QNH
hPa
Press
MSL
hPa
Rain since
9am
mm
Dir  Spd
km/h
Gust
km/h
Spd
kts
Gust
kts
16/11:30pm - - - - - ESE 41 50 22 27 - - -
16/11:00pm - - - - - ESE 41 50 22 27 - - -
16/10:30pm - - - - - ESE 39 48 21 26 - - -
16/10:00pm - - - - - ESE 46 54 25 29 - - -
16/09:30pm - - - - - ESE 43 52 23 28 - - -
16/09:00pm - - - - - ESE 43 52 23 28 - - -
16/08:30pm - - - - - ESE 43 56 23 30 - - -
16/08:00pm - - - - - ESE 39 46 21 25 - - -
16/07:30pm - - - - - ESE 44 54 24 29 - - -
16/07:00pm - - - - - ESE 44 54 24 29 - - -
16/06:30pm - - - - - ESE 46 61 25 33 - - -
16/06:00pm - - - - - ESE 39 46 21 25 - - -
16/05:30pm - - - - - ESE 39 52 21 28 - - -
16/05:00pm - - - - - ESE 41 48 22 26 - - -
16/04:30pm - - - - - ESE 43 52 23 28 - - -
16/04:00pm - - - - - ESE 43 54 23 29 - - -
16/03:30pm - - - - - SE 41 52 22 28 - - -
16/03:00pm - - - - - ESE 46 52 25 28 - - -
16/02:30pm - - - - - ESE 44 54 24 29 - - -
16/02:00pm - - - - - ESE 46 54 25 29 - - -
16/01:30pm - - - - - ESE 46 56 25 30 - - -
16/01:00pm - - - - - SE 44 50 24 27 - - -
16/12:30pm - - - - - ESE 44 52 24 28 - - -
16/12:00pm - - - - - ESE 46 56 25 30 - - -
16/11:30am - - - - - ESE 46 54 25 29 - - -
16/11:00am - - - - - ESE 46 54 25 29 - - -
16/10:30am - - - - - ESE 43 52 23 28 - - -
16/10:00am - - - - - ESE 43 52 23 28 - - -
16/09:30am - - - - - ESE 46 56 25 30 - - -
16/09:00am - - - - - ESE 46 57 25 31 - - -
16/08:30am - - - - - ESE 44 52 24 28 - - -
16/08:00am - - - - - ESE 37 48 20 26 - - -
16/07:30am - - - - - ESE 43 57 23 31 - - -
16/07:00am - - - - - ESE 39 50 21 27 - - -
16/06:30am - - - - - ESE 37 46 20 25 - - -
16/06:00am - - - - - ESE 35 44 19 24 - - -
16/05:30am - - - - - ESE 39 46 21 25 - - -
16/05:00am - - - - - ESE 37 46 20 25 - - -
16/04:30am - - - - - ESE 33 43 18 23 - - -
16/04:00am - - - - - ESE 35 44 19 24 - - -
16/03:30am - - - - - ESE 37 44 20 24 - - -
16/03:00am - - - - - ESE 41 54 22 29 - - -
16/02:30am - - - - - ESE 39 48 21 26 - - -
16/02:00am - - - - - ESE 39 48 21 26 - - -
16/01:30am - - - - - ESE 41 52 22 28 - - -
16/01:00am - - - - - SE 43 52 23 28 - - -
16/12:30am - - - - - SE 44 54 24 29 - - -
16/12:00am - - - - - SE 41 52 22 28 - - -
 
Date/Time
EST
Temp
°C
App
Temp
°C
Dew
Point
°C
Rel
Hum
%
Delta-T
°C
Wind Press
QNH
hPa
Press
MSL
hPa
Rain since
9am
mm
Dir  Spd
km/h
Gust
km/h
Spd
kts
Gust
kts
15/11:30pm - - - - - SE 44 52 24 28 - - -
15/11:00pm - - - - - SE 44 52 24 28 - - -
15/10:30pm - - - - - SE 44 54 24 29 - - -
15/10:00pm - - - - - SE 44 54 24 29 - - -
15/09:30pm - - - - - SE 43 50 23 27 - - -
15/09:00pm - - - - - ESE 44 57 24 31 - - -
15/08:30pm - - - - - ESE 46 54 25 29 - - -
15/08:00pm - - - - - ESE 48 57 26 31 - - -
15/07:30pm - - - - - ESE 44 57 24 31 - - -
15/07:00pm - - - - - E 37 52 20 28 - - -
15/06:40pm - - - - - ESE 43 54 23 29 - - -
15/06:30pm - - - - - ESE 43 54 23 29 - - -
15/06:06pm - - - - - ESE 41 63 22 34 - - -
15/06:00pm - - - - - SE 44 57 24 31 - - -
15/05:30pm - - - - - ESE 46 57 25 31 - - -
15/05:00pm - - - - - ESE 46 57 25 31 - - -
15/04:33pm - - - - - ESE 52 70 28 38 - - -
15/04:30pm - - - - - ESE 54 70 29 38 - - -
15/04:00pm - - - - - ESE 50 61 27 33 - - -
15/03:38pm - - - - - ESE 43 69 23 37 - - -
15/03:30pm - - - - - ESE 43 54 23 29 - - -
15/03:00pm - - - - - SE 44 57 24 31 - - -
15/02:48pm - - - - - SE 35 57 19 31 - - -
15/02:30pm - - - - - SSE 35 44 19 24 - - -
15/02:00pm - - - - - SSE 41 48 22 26 - - -
15/01:30pm - - - - - SE 43 50 23 27 - - -
15/01:00pm - - - - - ESE 44 57 24 31 - - -
15/12:30pm - - - - - ESE 37 44 20 24 - - -
15/12:00pm - - - - - ESE 41 50 22 27 - - -
15/11:30am - - - - - ESE 46 56 25 30 - - -
15/11:00am - - - - - ESE 43 52 23 28 - - -
15/10:30am - - - - - ESE 39 48 21 26 - - -
15/10:00am - - - - - ESE 44 54 24 29 - - -
15/09:30am - - - - - ESE 43 54 23 29 - - -
15/09:00am - - - - - ESE 39 52 21 28 - - -
15/08:49am - - - - - SE 35 48 19 26 - - -
15/08:30am - - - - - SSE 35 46 19 25 - - -
15/08:00am - - - - - SE 32 39 17 21 - - -
15/07:30am - - - - - SE 33 39 18 21 - - -
15/07:00am - - - - - SE 39 48 21 26 - - -
15/06:52am - - - - - ESE 33 48 18 26 - - -
15/06:30am - - - - - ESE 30 35 16 19 - - -
15/06:00am - - - - - ESE 30 35 16 19 - - -
15/05:30am - - - - - ESE 30 35 16 19 - - -
15/05:00am - - - - - SE 22 30 12 16 - - -
15/04:30am - - - - - SE 35 44 19 24 - - -
15/04:00am - - - - - E 24 33 13 18 - - -
15/03:30am - - - - - E 30 39 16 21 - - -
15/03:00am - - - - - ESE 30 39 16 21 - - -
15/02:30am - - - - - ESE 28 33 15 18 - - -
15/02:00am - - - - - ESE 33 39 18 21 - - -
15/01:30am - - - - - SE 33 41 18 22 - - -
15/01:00am - - - - - SE 28 33 15 18 - - -
15/12:30am - - - - - SE 30 39 16 21 - - -
15/12:00am - - - - - SE 32 35 17 19 - - -
 
Date/Time
EST
Temp
°C
App
Temp
°C
Dew
Point
°C
Rel
Hum
%
Delta-T
°C
Wind Press
QNH
hPa
Press
MSL
hPa
Rain since
9am
mm
Dir  Spd
km/h
Gust
km/h
Spd
kts
Gust
kts
14/11:30pm - - - - - ESE 30 33 16 18 - - -
14/11:00pm - - - - - SE 26 30 14 16 - - -
14/10:30pm - - - - - SE 26 30 14 16 - - -
14/10:00pm - - - - - SE 33 46 18 25 - - -
14/09:30pm - - - - - SE 37 48 20 26 - - -
14/09:00pm - - - - - ESE 30 35 16 19 - - -
14/08:30pm - - - - - ESE 30 35 16 19 - - -
14/08:00pm - - - - - ENE 28 33 15 18 - - -
14/07:45pm - - - - - ESE 35 43 19 23 - - -
14/07:41pm - - - - - SE 37 43 20 23 - - -
14/07:30pm - - - - - SSE 30 43 16 23 - - -
14/07:00pm - - - - - SE 24 32 13 17 - - -
14/06:30pm - - - - - E 26 37 14 20 - - -
14/06:10pm - - - - - ESE 32 44 17 24 - - -
14/06:00pm - - - - - SE 17 26 9 14 - - -
14/05:30pm - - - - - ESE 7 17 4 9 - - -
14/05:00pm - - - - - SSE 9 11 5 6 - - -
14/04:30pm - - - - - S 7 9 4 5 - - -
14/04:00pm - - - - - S 6 9 3 5 - - -
14/03:30pm - - - - - S 4 4 2 2 - - -
14/03:00pm - - - - - CALM 0 2 0 1 - - -
14/02:30pm - - - - - W 4 6 2 3 - - -
14/02:00pm - - - - - N 13 17 7 9 - - -
14/01:30pm - - - - - N 20 26 11 14 - - -
14/01:00pm - - - - - N 15 19 8 10 - - -
14/12:30pm - - - - - NE 19 20 10 11 - - -
14/12:00pm - - - - - NE 15 20 8 11 - - -
14/11:30am - - - - - NE 26 28 14 15 - - -
14/11:00am - - - - - NE 30 35 16 19 - - -
14/10:30am - - - - - ENE 26 30 14 16 - - -
14/10:00am - - - - - ESE 30 35 16 19 - - -

Latest Capital City Observations: Canberra | Sydney | Melbourne | Brisbane | Adelaide | Perth | Hobart | Darwin

Other Formats:

Comma delimited format used in spreadsheet applications
http://www.bom.gov.au/fwo/IDQ60901/IDQ60901.94590.axf

JavaScript Object Notation format (JSON) in row-major order
http://www.bom.gov.au/fwo/IDQ60901/IDQ60901.94590.json